sensor_id;sensor_type;location;lat;lon;timestamp;P1;durP1;ratioP1;P2;durP2;ratioP2
43248;SDS011;29216;51.248;6.808;2023-10-31T00:01:07;4.20;;;3.80;;
43248;SDS011;29216;51.248;6.808;2023-10-31T00:03:33;4.32;;;3.63;;
43248;SDS011;29216;51.248;6.808;2023-10-31T00:05:59;4.35;;;3.95;;
43248;SDS011;29216;51.248;6.808;2023-10-31T00:08:25;6.78;;;3.65;;
43248;SDS011;29216;51.248;6.808;2023-10-31T00:10:51;4.43;;;3.92;;
43248;SDS011;29216;51.248;6.808;2023-10-31T00:13:17;4.00;;;3.60;;
43248;SDS011;29216;51.248;6.808;2023-10-31T00:15:43;5.60;;;4.25;;
43248;SDS011;29216;51.248;6.808;2023-10-31T00:18:09;4.38;;;3.97;;
43248;SDS011;29216;51.248;6.808;2023-10-31T00:20:35;5.20;;;3.97;;
43248;SDS011;29216;51.248;6.808;2023-10-31T00:23:01;4.07;;;3.67;;
43248;SDS011;29216;51.248;6.808;2023-10-31T00:25:27;4.28;;;3.88;;
43248;SDS011;29216;51.248;6.808;2023-10-31T00:27:53;4.10;;;3.70;;
43248;SDS011;29216;51.248;6.808;2023-10-31T00:30:19;4.95;;;3.55;;
43248;SDS011;29216;51.248;6.808;2023-10-31T00:35:14;7.15;;;4.30;;
43248;SDS011;29216;51.248;6.808;2023-10-31T00:37:40;3.70;;;3.35;;
43248;SDS011;29216;51.248;6.808;2023-10-31T00:40:06;4.38;;;3.95;;
43248;SDS011;29216;51.248;6.808;2023-10-31T00:42:32;3.88;;;3.47;;
43248;SDS011;29216;51.248;6.808;2023-10-31T00:44:59;6.47;;;3.75;;
43248;SDS011;29216;51.248;6.808;2023-10-31T00:47:25;3.85;;;3.55;;
43248;SDS011;29216;51.248;6.808;2023-10-31T00:49:50;3.70;;;3.40;;
43248;SDS011;29216;51.248;6.808;2023-10-31T00:52:18;5.80;;;3.88;;
43248;SDS011;29216;51.248;6.808;2023-10-31T00:54:44;6.25;;;3.70;;
43248;SDS011;29216;51.248;6.808;2023-10-31T00:57:10;4.35;;;3.20;;
43248;SDS011;29216;51.248;6.808;2023-10-31T00:59:36;3.30;;;3.00;;
43248;SDS011;29216;51.248;6.808;2023-10-31T01:02:04;3.05;;;2.70;;
43248;SDS011;29216;51.248;6.808;2023-10-31T01:04:30;2.60;;;2.40;;
43248;SDS011;29216;51.248;6.808;2023-10-31T01:06:56;3.97;;;2.67;;
43248;SDS011;29216;51.248;6.808;2023-10-31T01:09:22;3.35;;;2.60;;
43248;SDS011;29216;51.248;6.808;2023-10-31T01:11:48;2.70;;;2.35;;
43248;SDS011;29216;51.248;6.808;2023-10-31T01:14:14;2.88;;;2.47;;
43248;SDS011;29216;51.248;6.808;2023-10-31T01:16:40;4.50;;;2.20;;
43248;SDS011;29216;51.248;6.808;2023-10-31T01:19:06;3.00;;;2.50;;
43248;SDS011;29216;51.248;6.808;2023-10-31T01:21:33;5.15;;;2.78;;
43248;SDS011;29216;51.248;6.808;2023-10-31T01:23:59;3.70;;;2.60;;
43248;SDS011;29216;51.248;6.808;2023-10-31T01:26:25;4.50;;;2.60;;
43248;SDS011;29216;51.248;6.808;2023-10-31T01:28:51;2.88;;;2.58;;
43248;SDS011;29216;51.248;6.808;2023-10-31T01:31:17;3.17;;;2.72;;
43248;SDS011;29216;51.248;6.808;2023-10-31T01:33:43;3.05;;;2.60;;
43248;SDS011;29216;51.248;6.808;2023-10-31T01:36:10;6.88;;;2.85;;
43248;SDS011;29216;51.248;6.808;2023-10-31T01:38:37;4.35;;;3.08;;
43248;SDS011;29216;51.248;6.808;2023-10-31T01:41:03;6.05;;;3.80;;
43248;SDS011;29216;51.248;6.808;2023-10-31T01:43:30;5.38;;;3.10;;
43248;SDS011;29216;51.248;6.808;2023-10-31T01:45:56;4.15;;;2.47;;
43248;SDS011;29216;51.248;6.808;2023-10-31T01:48:22;5.90;;;2.80;;
43248;SDS011;29216;51.248;6.808;2023-10-31T01:50:48;3.40;;;2.92;;
43248;SDS011;29216;51.248;6.808;2023-10-31T01:53:14;4.20;;;2.92;;
43248;SDS011;29216;51.248;6.808;2023-10-31T01:55:40;12.32;;;3.05;;
43248;SDS011;29216;51.248;6.808;2023-10-31T01:58:07;5.57;;;3.42;;
43248;SDS011;29216;51.248;6.808;2023-10-31T02:00:34;8.77;;;3.63;;
43248;SDS011;29216;51.248;6.808;2023-10-31T02:03:00;7.78;;;4.05;;
43248;SDS011;29216;51.248;6.808;2023-10-31T02:05:27;6.78;;;4.35;;
43248;SDS011;29216;51.248;6.808;2023-10-31T02:07:53;7.70;;;4.05;;
43248;SDS011;29216;51.248;6.808;2023-10-31T02:10:19;6.45;;;4.25;;
43248;SDS011;29216;51.248;6.808;2023-10-31T02:12:45;7.90;;;4.78;;
43248;SDS011;29216;51.248;6.808;2023-10-31T02:15:11;8.18;;;4.65;;
43248;SDS011;29216;51.248;6.808;2023-10-31T02:17:37;8.73;;;4.32;;
43248;SDS011;29216;51.248;6.808;2023-10-31T02:20:03;6.47;;;5.25;;
43248;SDS011;29216;51.248;6.808;2023-10-31T02:22:29;11.27;;;5.20;;
43248;SDS011;29216;51.248;6.808;2023-10-31T02:24:55;10.30;;;5.22;;
43248;SDS011;29216;51.248;6.808;2023-10-31T02:27:21;7.63;;;4.57;;
43248;SDS011;29216;51.248;6.808;2023-10-31T02:29:47;8.68;;;5.38;;
43248;SDS011;29216;51.248;6.808;2023-10-31T02:32:13;8.05;;;5.40;;
43248;SDS011;29216;51.248;6.808;2023-10-31T02:34:39;11.10;;;4.88;;
43248;SDS011;29216;51.248;6.808;2023-10-31T02:37:05;6.68;;;5.35;;
43248;SDS011;29216;51.248;6.808;2023-10-31T02:39:31;7.05;;;4.60;;
43248;SDS011;29216;51.248;6.808;2023-10-31T02:41:58;9.30;;;5.32;;
43248;SDS011;29216;51.248;6.808;2023-10-31T02:44:23;9.43;;;5.50;;
43248;SDS011;29216;51.248;6.808;2023-10-31T02:46:49;9.27;;;5.85;;
43248;SDS011;29216;51.248;6.808;2023-10-31T02:49:15;9.57;;;6.38;;
43248;SDS011;29216;51.248;6.808;2023-10-31T02:51:41;14.07;;;6.50;;
43248;SDS011;29216;51.248;6.808;2023-10-31T02:54:07;8.25;;;6.10;;
43248;SDS011;29216;51.248;6.808;2023-10-31T02:56:33;10.35;;;6.60;;
43248;SDS011;29216;51.248;6.808;2023-10-31T02:58:59;10.27;;;6.38;;
43248;SDS011;29216;51.248;6.808;2023-10-31T03:01:27;11.75;;;6.80;;
43248;SDS011;29216;51.248;6.808;2023-10-31T03:03:54;9.25;;;6.38;;
43248;SDS011;29216;51.248;6.808;2023-10-31T03:06:20;12.40;;;6.80;;
43248;SDS011;29216;51.248;6.808;2023-10-31T03:08:47;12.90;;;7.03;;
43248;SDS011;29216;51.248;6.808;2023-10-31T03:11:25;9.75;;;6.93;;
43248;SDS011;29216;51.248;6.808;2023-10-31T03:13:51;10.38;;;6.60;;
43248;SDS011;29216;51.248;6.808;2023-10-31T03:16:21;10.63;;;6.30;;
43248;SDS011;29216;51.248;6.808;2023-10-31T03:18:47;9.25;;;6.45;;
43248;SDS011;29216;51.248;6.808;2023-10-31T03:21:13;10.32;;;6.80;;
43248;SDS011;29216;51.248;6.808;2023-10-31T03:23:40;12.20;;;6.63;;
43248;SDS011;29216;51.248;6.808;2023-10-31T03:26:07;11.73;;;6.50;;
43248;SDS011;29216;51.248;6.808;2023-10-31T03:28:32;9.95;;;7.10;;
43248;SDS011;29216;51.248;6.808;2023-10-31T03:30:58;9.70;;;6.55;;
43248;SDS011;29216;51.248;6.808;2023-10-31T03:33:24;11.45;;;6.38;;
43248;SDS011;29216;51.248;6.808;2023-10-31T03:35:50;10.63;;;6.65;;
43248;SDS011;29216;51.248;6.808;2023-10-31T03:38:16;8.50;;;6.20;;
43248;SDS011;29216;51.248;6.808;2023-10-31T03:40:42;10.18;;;6.15;;
43248;SDS011;29216;51.248;6.808;2023-10-31T03:43:08;8.70;;;6.07;;
43248;SDS011;29216;51.248;6.808;2023-10-31T03:45:34;13.27;;;5.68;;
43248;SDS011;29216;51.248;6.808;2023-10-31T03:48:00;9.70;;;6.13;;
43248;SDS011;29216;51.248;6.808;2023-10-31T03:50:26;8.60;;;5.57;;
43248;SDS011;29216;51.248;6.808;2023-10-31T03:52:52;11.10;;;5.75;;
43248;SDS011;29216;51.248;6.808;2023-10-31T03:55:18;9.15;;;5.70;;
43248;SDS011;29216;51.248;6.808;2023-10-31T03:57:44;10.52;;;6.18;;
43248;SDS011;29216;51.248;6.808;2023-10-31T04:00:10;7.15;;;5.18;;
43248;SDS011;29216;51.248;6.808;2023-10-31T04:02:37;8.35;;;5.35;;
43248;SDS011;29216;51.248;6.808;2023-10-31T04:05:05;8.02;;;4.80;;
43248;SDS011;29216;51.248;6.808;2023-10-31T04:07:31;8.65;;;5.03;;
43248;SDS011;29216;51.248;6.808;2023-10-31T04:09:57;9.77;;;5.80;;
43248;SDS011;29216;51.248;6.808;2023-10-31T04:12:23;8.30;;;4.75;;
43248;SDS011;29216;51.248;6.808;2023-10-31T04:14:49;8.88;;;4.93;;
43248;SDS011;29216;51.248;6.808;2023-10-31T04:17:15;7.07;;;5.13;;
43248;SDS011;29216;51.248;6.808;2023-10-31T04:19:41;7.93;;;5.65;;
43248;SDS011;29216;51.248;6.808;2023-10-31T04:22:07;9.35;;;5.00;;
43248;SDS011;29216;51.248;6.808;2023-10-31T04:24:33;6.75;;;4.70;;
43248;SDS011;29216;51.248;6.808;2023-10-31T04:26:59;6.85;;;4.75;;
43248;SDS011;29216;51.248;6.808;2023-10-31T04:29:25;7.90;;;5.25;;
43248;SDS011;29216;51.248;6.808;2023-10-31T04:31:52;6.85;;;5.20;;
43248;SDS011;29216;51.248;6.808;2023-10-31T04:34:18;8.60;;;5.68;;
43248;SDS011;29216;51.248;6.808;2023-10-31T04:36:44;7.30;;;5.22;;
43248;SDS011;29216;51.248;6.808;2023-10-31T04:39:10;7.13;;;5.25;;
43248;SDS011;29216;51.248;6.808;2023-10-31T04:41:36;8.05;;;5.53;;
43248;SDS011;29216;51.248;6.808;2023-10-31T04:44:02;6.90;;;5.18;;
43248;SDS011;29216;51.248;6.808;2023-10-31T04:46:28;7.43;;;5.10;;
43248;SDS011;29216;51.248;6.808;2023-10-31T04:48:54;7.90;;;5.68;;
43248;SDS011;29216;51.248;6.808;2023-10-31T04:51:20;7.50;;;5.07;;
43248;SDS011;29216;51.248;6.808;2023-10-31T04:53:46;9.10;;;5.53;;
43248;SDS011;29216;51.248;6.808;2023-10-31T04:56:13;7.03;;;5.15;;
43248;SDS011;29216;51.248;6.808;2023-10-31T04:58:40;6.85;;;5.28;;
43248;SDS011;29216;51.248;6.808;2023-10-31T05:01:10;8.57;;;5.10;;
43248;SDS011;29216;51.248;6.808;2023-10-31T05:03:37;6.60;;;5.20;;
43248;SDS011;29216;51.248;6.808;2023-10-31T05:06:03;6.40;;;5.15;;
43248;SDS011;29216;51.248;6.808;2023-10-31T05:08:29;6.45;;;5.10;;
43248;SDS011;29216;51.248;6.808;2023-10-31T05:10:57;5.97;;;4.88;;
43248;SDS011;29216;51.248;6.808;2023-10-31T05:13:24;5.88;;;4.75;;
43248;SDS011;29216;51.248;6.808;2023-10-31T05:15:50;6.10;;;4.90;;
43248;SDS011;29216;51.248;6.808;2023-10-31T05:18:16;7.68;;;5.85;;
43248;SDS011;29216;51.248;6.808;2023-10-31T05:20:42;6.03;;;4.95;;
43248;SDS011;29216;51.248;6.808;2023-10-31T05:23:08;7.25;;;5.63;;
43248;SDS011;29216;51.248;6.808;2023-10-31T05:25:34;6.05;;;5.40;;
43248;SDS011;29216;51.248;6.808;2023-10-31T05:28:01;10.55;;;6.47;;
43248;SDS011;29216;51.248;6.808;2023-10-31T05:30:27;10.13;;;6.13;;
43248;SDS011;29216;51.248;6.808;2023-10-31T05:32:52;7.43;;;5.55;;
43248;SDS011;29216;51.248;6.808;2023-10-31T05:35:18;6.70;;;4.88;;
43248;SDS011;29216;51.248;6.808;2023-10-31T05:37:45;8.40;;;6.10;;
43248;SDS011;29216;51.248;6.808;2023-10-31T05:40:12;7.35;;;5.70;;
43248;SDS011;29216;51.248;6.808;2023-10-31T05:42:39;7.55;;;5.65;;
43248;SDS011;29216;51.248;6.808;2023-10-31T05:45:05;9.00;;;6.38;;
43248;SDS011;29216;51.248;6.808;2023-10-31T05:47:31;8.18;;;5.93;;
43248;SDS011;29216;51.248;6.808;2023-10-31T05:49:58;8.70;;;6.03;;
43248;SDS011;29216;51.248;6.808;2023-10-31T05:52:27;9.90;;;6.25;;
43248;SDS011;29216;51.248;6.808;2023-10-31T05:54:54;11.05;;;6.82;;
43248;SDS011;29216;51.248;6.808;2023-10-31T05:57:20;8.13;;;6.47;;
43248;SDS011;29216;51.248;6.808;2023-10-31T05:59:46;9.00;;;6.03;;
43248;SDS011;29216;51.248;6.808;2023-10-31T06:02:13;7.93;;;5.70;;
43248;SDS011;29216;51.248;6.808;2023-10-31T06:04:39;9.40;;;5.97;;
43248;SDS011;29216;51.248;6.808;2023-10-31T06:07:05;7.20;;;6.05;;
43248;SDS011;29216;51.248;6.808;2023-10-31T06:09:31;9.93;;;5.70;;
43248;SDS011;29216;51.248;6.808;2023-10-31T06:12:00;9.50;;;5.93;;
43248;SDS011;29216;51.248;6.808;2023-10-31T06:14:26;7.90;;;5.55;;
43248;SDS011;29216;51.248;6.808;2023-10-31T06:16:52;7.47;;;5.35;;
43248;SDS011;29216;51.248;6.808;2023-10-31T06:19:19;7.55;;;5.30;;
43248;SDS011;29216;51.248;6.808;2023-10-31T06:21:45;7.38;;;6.22;;
43248;SDS011;29216;51.248;6.808;2023-10-31T06:24:11;9.32;;;5.78;;
43248;SDS011;29216;51.248;6.808;2023-10-31T06:26:37;8.48;;;5.85;;
43248;SDS011;29216;51.248;6.808;2023-10-31T06:29:04;6.80;;;5.72;;
43248;SDS011;29216;51.248;6.808;2023-10-31T06:31:30;6.68;;;5.38;;
43248;SDS011;29216;51.248;6.808;2023-10-31T06:33:56;10.85;;;6.82;;
43248;SDS011;29216;51.248;6.808;2023-10-31T06:36:22;7.93;;;5.70;;
43248;SDS011;29216;51.248;6.808;2023-10-31T06:38:48;9.63;;;6.50;;
43248;SDS011;29216;51.248;6.808;2023-10-31T06:41:14;11.00;;;7.47;;
43248;SDS011;29216;51.248;6.808;2023-10-31T06:43:40;9.25;;;7.25;;
43248;SDS011;29216;51.248;6.808;2023-10-31T06:46:06;9.07;;;7.50;;
43248;SDS011;29216;51.248;6.808;2023-10-31T06:48:32;10.82;;;8.20;;
43248;SDS011;29216;51.248;6.808;2023-10-31T06:50:58;10.43;;;7.93;;
43248;SDS011;29216;51.248;6.808;2023-10-31T06:53:24;12.30;;;8.32;;
43248;SDS011;29216;51.248;6.808;2023-10-31T06:55:50;11.57;;;8.57;;
43248;SDS011;29216;51.248;6.808;2023-10-31T06:58:16;15.73;;;9.15;;
43248;SDS011;29216;51.248;6.808;2023-10-31T07:00:42;15.02;;;9.15;;
43248;SDS011;29216;51.248;6.808;2023-10-31T07:03:08;11.77;;;8.65;;
43248;SDS011;29216;51.248;6.808;2023-10-31T07:05:39;13.40;;;9.73;;
43248;SDS011;29216;51.248;6.808;2023-10-31T07:08:05;9.63;;;8.45;;
43248;SDS011;29216;51.248;6.808;2023-10-31T07:10:31;10.38;;;8.82;;
43248;SDS011;29216;51.248;6.808;2023-10-31T07:12:58;11.00;;;9.30;;
43248;SDS011;29216;51.248;6.808;2023-10-31T07:15:24;12.75;;;8.38;;
43248;SDS011;29216;51.248;6.808;2023-10-31T07:17:50;13.38;;;8.85;;
43248;SDS011;29216;51.248;6.808;2023-10-31T07:20:16;10.80;;;8.68;;
43248;SDS011;29216;51.248;6.808;2023-10-31T07:22:42;9.63;;;8.23;;
43248;SDS011;29216;51.248;6.808;2023-10-31T07:25:08;11.77;;;9.45;;
43248;SDS011;29216;51.248;6.808;2023-10-31T07:27:35;12.02;;;8.43;;
43248;SDS011;29216;51.248;6.808;2023-10-31T07:30:02;11.68;;;9.23;;
43248;SDS011;29216;51.248;6.808;2023-10-31T07:32:29;12.30;;;9.48;;
43248;SDS011;29216;51.248;6.808;2023-10-31T07:34:55;12.60;;;9.52;;
43248;SDS011;29216;51.248;6.808;2023-10-31T07:37:20;15.55;;;10.57;;
43248;SDS011;29216;51.248;6.808;2023-10-31T07:39:46;12.20;;;10.45;;
43248;SDS011;29216;51.248;6.808;2023-10-31T07:42:13;12.68;;;10.45;;
43248;SDS011;29216;51.248;6.808;2023-10-31T07:44:39;12.48;;;10.10;;
43248;SDS011;29216;51.248;6.808;2023-10-31T07:47:05;10.60;;;9.25;;
43248;SDS011;29216;51.248;6.808;2023-10-31T07:49:31;10.95;;;9.13;;
43248;SDS011;29216;51.248;6.808;2023-10-31T07:51:58;11.38;;;8.63;;
43248;SDS011;29216;51.248;6.808;2023-10-31T07:54:24;12.23;;;8.77;;
43248;SDS011;29216;51.248;6.808;2023-10-31T07:56:50;8.93;;;7.82;;
43248;SDS011;29216;51.248;6.808;2023-10-31T07:59:16;9.82;;;8.45;;
43248;SDS011;29216;51.248;6.808;2023-10-31T08:01:42;9.80;;;7.38;;
43248;SDS011;29216;51.248;6.808;2023-10-31T08:04:08;8.68;;;7.47;;
43248;SDS011;29216;51.248;6.808;2023-10-31T08:06:34;8.98;;;7.50;;
43248;SDS011;29216;51.248;6.808;2023-10-31T08:09:00;7.88;;;6.57;;
43248;SDS011;29216;51.248;6.808;2023-10-31T08:11:27;7.30;;;6.40;;
43248;SDS011;29216;51.248;6.808;2023-10-31T08:13:53;9.23;;;6.85;;
43248;SDS011;29216;51.248;6.808;2023-10-31T08:16:19;7.15;;;6.45;;
43248;SDS011;29216;51.248;6.808;2023-10-31T08:18:45;8.32;;;6.47;;
43248;SDS011;29216;51.248;6.808;2023-10-31T08:21:11;9.82;;;6.20;;
43248;SDS011;29216;51.248;6.808;2023-10-31T08:23:38;8.48;;;6.63;;
43248;SDS011;29216;51.248;6.808;2023-10-31T08:26:04;8.48;;;6.55;;
43248;SDS011;29216;51.248;6.808;2023-10-31T08:28:30;6.22;;;5.40;;
43248;SDS011;29216;51.248;6.808;2023-10-31T08:30:56;7.93;;;6.07;;
43248;SDS011;29216;51.248;6.808;2023-10-31T08:33:22;6.93;;;5.60;;
43248;SDS011;29216;51.248;6.808;2023-10-31T08:35:49;8.20;;;5.68;;
43248;SDS011;29216;51.248;6.808;2023-10-31T08:38:16;7.28;;;5.90;;
43248;SDS011;29216;51.248;6.808;2023-10-31T08:40:42;11.57;;;5.80;;
43248;SDS011;29216;51.248;6.808;2023-10-31T08:43:08;8.60;;;5.70;;
43248;SDS011;29216;51.248;6.808;2023-10-31T08:45:34;6.85;;;6.15;;
43248;SDS011;29216;51.248;6.808;2023-10-31T08:48:00;8.30;;;5.53;;
43248;SDS011;29216;51.248;6.808;2023-10-31T08:50:26;7.28;;;5.72;;
43248;SDS011;29216;51.248;6.808;2023-10-31T08:52:53;8.70;;;5.60;;
43248;SDS011;29216;51.248;6.808;2023-10-31T08:55:19;10.18;;;5.60;;
43248;SDS011;29216;51.248;6.808;2023-10-31T08:57:46;7.28;;;5.50;;
43248;SDS011;29216;51.248;6.808;2023-10-31T09:00:12;9.52;;;5.55;;
43248;SDS011;29216;51.248;6.808;2023-10-31T09:02:39;8.18;;;5.60;;
43248;SDS011;29216;51.248;6.808;2023-10-31T09:05:05;9.43;;;5.28;;
43248;SDS011;29216;51.248;6.808;2023-10-31T09:07:31;6.43;;;5.18;;
43248;SDS011;29216;51.248;6.808;2023-10-31T09:09:57;7.97;;;5.97;;
43248;SDS011;29216;51.248;6.808;2023-10-31T09:12:23;7.95;;;6.03;;
43248;SDS011;29216;51.248;6.808;2023-10-31T09:14:49;7.13;;;5.78;;
43248;SDS011;29216;51.248;6.808;2023-10-31T09:17:15;9.77;;;6.40;;
43248;SDS011;29216;51.248;6.808;2023-10-31T09:19:41;7.60;;;6.85;;
43248;SDS011;29216;51.248;6.808;2023-10-31T09:22:07;8.20;;;6.35;;
43248;SDS011;29216;51.248;6.808;2023-10-31T09:24:36;8.23;;;6.57;;
43248;SDS011;29216;51.248;6.808;2023-10-31T09:27:02;8.80;;;6.53;;
43248;SDS011;29216;51.248;6.808;2023-10-31T09:29:28;6.68;;;6.00;;
43248;SDS011;29216;51.248;6.808;2023-10-31T09:31:54;6.47;;;5.88;;
43248;SDS011;29216;51.248;6.808;2023-10-31T09:34:20;8.55;;;6.22;;
43248;SDS011;29216;51.248;6.808;2023-10-31T09:36:46;8.25;;;6.43;;
43248;SDS011;29216;51.248;6.808;2023-10-31T09:39:12;10.10;;;5.70;;
43248;SDS011;29216;51.248;6.808;2023-10-31T09:41:38;8.05;;;5.93;;
43248;SDS011;29216;51.248;6.808;2023-10-31T09:44:04;7.53;;;5.65;;
43248;SDS011;29216;51.248;6.808;2023-10-31T09:46:31;8.70;;;5.47;;
43248;SDS011;29216;51.248;6.808;2023-10-31T09:48:57;8.93;;;4.82;;
43248;SDS011;29216;51.248;6.808;2023-10-31T09:51:23;9.80;;;4.65;;
43248;SDS011;29216;51.248;6.808;2023-10-31T09:53:50;7.30;;;4.82;;
43248;SDS011;29216;51.248;6.808;2023-10-31T09:56:17;13.30;;;4.93;;
43248;SDS011;29216;51.248;6.808;2023-10-31T09:58:43;5.65;;;3.75;;
43248;SDS011;29216;51.248;6.808;2023-10-31T10:01:09;5.93;;;3.58;;
43248;SDS011;29216;51.248;6.808;2023-10-31T10:03:36;6.93;;;3.95;;
43248;SDS011;29216;51.248;6.808;2023-10-31T10:06:02;7.13;;;3.67;;
43248;SDS011;29216;51.248;6.808;2023-10-31T10:08:28;8.70;;;3.70;;
43248;SDS011;29216;51.248;6.808;2023-10-31T10:10:54;4.78;;;3.53;;
43248;SDS011;29216;51.248;6.808;2023-10-31T10:13:21;6.15;;;3.72;;
43248;SDS011;29216;51.248;6.808;2023-10-31T10:15:47;4.55;;;2.97;;
43248;SDS011;29216;51.248;6.808;2023-10-31T10:18:31;6.22;;;3.50;;
43248;SDS011;29216;51.248;6.808;2023-10-31T10:20:58;5.15;;;3.20;;
43248;SDS011;29216;51.248;6.808;2023-10-31T10:23:24;7.38;;;3.33;;
43248;SDS011;29216;51.248;6.808;2023-10-31T10:25:51;8.60;;;3.20;;
43248;SDS011;29216;51.248;6.808;2023-10-31T10:28:17;5.22;;;2.92;;
43248;SDS011;29216;51.248;6.808;2023-10-31T10:30:47;5.65;;;3.03;;
43248;SDS011;29216;51.248;6.808;2023-10-31T10:33:13;3.63;;;2.80;;
43248;SDS011;29216;51.248;6.808;2023-10-31T10:35:39;6.50;;;2.88;;
43248;SDS011;29216;51.248;6.808;2023-10-31T10:38:27;5.70;;;2.67;;
43248;SDS011;29216;51.248;6.808;2023-10-31T10:40:52;5.35;;;2.42;;
43248;SDS011;29216;51.248;6.808;2023-10-31T10:43:22;7.85;;;2.40;;
43248;SDS011;29216;51.248;6.808;2023-10-31T10:45:58;7.75;;;2.35;;
43248;SDS011;29216;51.248;6.808;2023-10-31T10:48:25;6.13;;;2.70;;
43248;SDS011;29216;51.248;6.808;2023-10-31T10:50:56;5.05;;;2.80;;
43248;SDS011;29216;51.248;6.808;2023-10-31T10:53:23;5.38;;;2.50;;
43248;SDS011;29216;51.248;6.808;2023-10-31T10:55:57;4.55;;;2.40;;
43248;SDS011;29216;51.248;6.808;2023-10-31T10:58:41;5.38;;;2.53;;
43248;SDS011;29216;51.248;6.808;2023-10-31T11:01:10;5.97;;;2.70;;
43248;SDS011;29216;51.248;6.808;2023-10-31T11:03:36;5.60;;;2.30;;
43248;SDS011;29216;51.248;6.808;2023-10-31T11:06:03;6.47;;;2.30;;
43248;SDS011;29216;51.248;6.808;2023-10-31T11:08:30;3.67;;;2.30;;
43248;SDS011;29216;51.248;6.808;2023-10-31T11:10:57;4.78;;;2.25;;
43248;SDS011;29216;51.248;6.808;2023-10-31T11:13:23;5.03;;;2.03;;
43248;SDS011;29216;51.248;6.808;2023-10-31T11:15:51;4.25;;;2.47;;
43248;SDS011;29216;51.248;6.808;2023-10-31T11:18:19;5.80;;;2.00;;
43248;SDS011;29216;51.248;6.808;2023-10-31T11:20:45;5.43;;;2.10;;
43248;SDS011;29216;51.248;6.808;2023-10-31T11:23:12;9.15;;;2.30;;
43248;SDS011;29216;51.248;6.808;2023-10-31T11:25:42;3.13;;;2.10;;
43248;SDS011;29216;51.248;6.808;2023-10-31T11:30:37;3.88;;;2.10;;
43248;SDS011;29216;51.248;6.808;2023-10-31T11:33:03;3.13;;;1.92;;
43248;SDS011;29216;51.248;6.808;2023-10-31T11:35:30;3.22;;;1.92;;
43248;SDS011;29216;51.248;6.808;2023-10-31T11:38:02;2.85;;;2.10;;
43248;SDS011;29216;51.248;6.808;2023-10-31T11:40:28;7.78;;;3.00;;
43248;SDS011;29216;51.248;6.808;2023-10-31T11:42:58;4.03;;;1.95;;
43248;SDS011;29216;51.248;6.808;2023-10-31T11:45:40;4.93;;;2.13;;
43248;SDS011;29216;51.248;6.808;2023-10-31T11:48:09;5.57;;;2.13;;
43248;SDS011;29216;51.248;6.808;2023-10-31T11:50:36;5.20;;;2.33;;
43248;SDS011;29216;51.248;6.808;2023-10-31T11:53:03;5.53;;;2.28;;
43248;SDS011;29216;51.248;6.808;2023-10-31T11:55:30;3.00;;;1.80;;
43248;SDS011;29216;51.248;6.808;2023-10-31T11:57:58;4.72;;;2.17;;
43248;SDS011;29216;51.248;6.808;2023-10-31T12:00:25;3.90;;;1.83;;
43248;SDS011;29216;51.248;6.808;2023-10-31T12:02:58;6.45;;;2.22;;
43248;SDS011;29216;51.248;6.808;2023-10-31T12:05:24;4.97;;;1.92;;
43248;SDS011;29216;51.248;6.808;2023-10-31T12:07:50;5.70;;;2.28;;
43248;SDS011;29216;51.248;6.808;2023-10-31T12:10:26;2.80;;;2.00;;
43248;SDS011;29216;51.248;6.808;2023-10-31T12:12:55;2.13;;;1.90;;
43248;SDS011;29216;51.248;6.808;2023-10-31T12:15:21;5.55;;;2.17;;
43248;SDS011;29216;51.248;6.808;2023-10-31T12:17:48;10.05;;;4.03;;
43248;SDS011;29216;51.248;6.808;2023-10-31T12:20:14;6.53;;;2.40;;
43248;SDS011;29216;51.248;6.808;2023-10-31T12:22:41;5.90;;;2.45;;
43248;SDS011;29216;51.248;6.808;2023-10-31T12:25:07;3.65;;;2.30;;
43248;SDS011;29216;51.248;6.808;2023-10-31T12:30:09;3.47;;;2.00;;
43248;SDS011;29216;51.248;6.808;2023-10-31T12:32:36;8.25;;;2.50;;
43248;SDS011;29216;51.248;6.808;2023-10-31T12:35:02;5.07;;;2.30;;
43248;SDS011;29216;51.248;6.808;2023-10-31T12:37:28;2.45;;;1.90;;
43248;SDS011;29216;51.248;6.808;2023-10-31T12:39:55;4.20;;;2.30;;
43248;SDS011;29216;51.248;6.808;2023-10-31T12:42:22;4.13;;;2.30;;
43248;SDS011;29216;51.248;6.808;2023-10-31T12:44:54;3.50;;;2.08;;
43248;SDS011;29216;51.248;6.808;2023-10-31T12:47:21;4.30;;;2.20;;
43248;SDS011;29216;51.248;6.808;2023-10-31T12:49:47;6.20;;;2.97;;
43248;SDS011;29216;51.248;6.808;2023-10-31T12:52:13;5.50;;;2.33;;
43248;SDS011;29216;51.248;6.808;2023-10-31T12:54:39;3.67;;;1.90;;
43248;SDS011;29216;51.248;6.808;2023-10-31T12:57:08;4.43;;;3.13;;
43248;SDS011;29216;51.248;6.808;2023-10-31T12:59:37;3.10;;;2.20;;
43248;SDS011;29216;51.248;6.808;2023-10-31T13:02:04;3.05;;;1.80;;
43248;SDS011;29216;51.248;6.808;2023-10-31T13:04:31;5.72;;;2.25;;
43248;SDS011;29216;51.248;6.808;2023-10-31T13:07:07;4.50;;;2.03;;
43248;SDS011;29216;51.248;6.808;2023-10-31T13:09:34;3.47;;;2.10;;
43248;SDS011;29216;51.248;6.808;2023-10-31T13:12:02;4.82;;;2.80;;
43248;SDS011;29216;51.248;6.808;2023-10-31T13:14:28;6.90;;;2.35;;
43248;SDS011;29216;51.248;6.808;2023-10-31T13:16:54;4.57;;;2.20;;
43248;SDS011;29216;51.248;6.808;2023-10-31T13:19:20;3.35;;;2.08;;
43248;SDS011;29216;51.248;6.808;2023-10-31T13:21:47;4.63;;;1.75;;
43248;SDS011;29216;51.248;6.808;2023-10-31T13:24:13;4.82;;;1.80;;
43248;SDS011;29216;51.248;6.808;2023-10-31T13:26:39;3.13;;;1.90;;
43248;SDS011;29216;51.248;6.808;2023-10-31T13:29:05;4.40;;;1.95;;
43248;SDS011;29216;51.248;6.808;2023-10-31T13:31:31;4.72;;;2.05;;
43248;SDS011;29216;51.248;6.808;2023-10-31T13:33:57;5.97;;;2.13;;
43248;SDS011;29216;51.248;6.808;2023-10-31T13:36:23;4.63;;;2.13;;
43248;SDS011;29216;51.248;6.808;2023-10-31T13:38:49;4.38;;;1.98;;
43248;SDS011;29216;51.248;6.808;2023-10-31T13:41:15;6.55;;;2.10;;
43248;SDS011;29216;51.248;6.808;2023-10-31T13:43:41;3.92;;;1.70;;
43248;SDS011;29216;51.248;6.808;2023-10-31T13:46:07;4.30;;;2.38;;
43248;SDS011;29216;51.248;6.808;2023-10-31T13:48:33;4.80;;;1.85;;
43248;SDS011;29216;51.248;6.808;2023-10-31T13:50:59;3.72;;;1.60;;
43248;SDS011;29216;51.248;6.808;2023-10-31T13:53:25;3.92;;;1.95;;
43248;SDS011;29216;51.248;6.808;2023-10-31T13:55:51;3.72;;;1.88;;
43248;SDS011;29216;51.248;6.808;2023-10-31T13:58:17;5.00;;;2.17;;
43248;SDS011;29216;51.248;6.808;2023-10-31T14:00:44;1.85;;;1.50;;
43248;SDS011;29216;51.248;6.808;2023-10-31T14:03:11;3.35;;;1.67;;
43248;SDS011;29216;51.248;6.808;2023-10-31T14:05:37;4.32;;;1.98;;
43248;SDS011;29216;51.248;6.808;2023-10-31T14:08:03;7.57;;;2.10;;
43248;SDS011;29216;51.248;6.808;2023-10-31T14:10:34;5.97;;;1.83;;
43248;SDS011;29216;51.248;6.808;2023-10-31T14:13:00;4.97;;;1.67;;
43248;SDS011;29216;51.248;6.808;2023-10-31T14:15:26;2.40;;;1.73;;
43248;SDS011;29216;51.248;6.808;2023-10-31T14:17:52;5.75;;;1.60;;
43248;SDS011;29216;51.248;6.808;2023-10-31T14:20:18;5.10;;;2.17;;
43248;SDS011;29216;51.248;6.808;2023-10-31T14:22:50;6.75;;;2.22;;
43248;SDS011;29216;51.248;6.808;2023-10-31T14:25:16;6.55;;;1.88;;
43248;SDS011;29216;51.248;6.808;2023-10-31T14:27:43;5.68;;;2.10;;
43248;SDS011;29216;51.248;6.808;2023-10-31T14:30:09;4.93;;;1.90;;
43248;SDS011;29216;51.248;6.808;2023-10-31T14:32:36;7.30;;;1.70;;
43248;SDS011;29216;51.248;6.808;2023-10-31T14:35:02;6.03;;;1.90;;
43248;SDS011;29216;51.248;6.808;2023-10-31T14:37:28;3.17;;;1.70;;
43248;SDS011;29216;51.248;6.808;2023-10-31T14:39:54;7.45;;;1.98;;
43248;SDS011;29216;51.248;6.808;2023-10-31T14:42:20;7.82;;;2.22;;
43248;SDS011;29216;51.248;6.808;2023-10-31T14:44:46;4.45;;;1.90;;
43248;SDS011;29216;51.248;6.808;2023-10-31T14:47:12;5.53;;;1.83;;
43248;SDS011;29216;51.248;6.808;2023-10-31T14:49:38;4.78;;;2.10;;